sensor_id;sensor_type;location;lat;lon;timestamp;temperature;humidity
12833;DHT22;6483;51.310;4.462;2023-12-20T00:00:58;6.90;99.90
12833;DHT22;6483;51.310;4.462;2023-12-20T00:03:24;8.70;99.90
12833;DHT22;6483;51.310;4.462;2023-12-20T00:05:50;6.80;99.90
12833;DHT22;6483;51.310;4.462;2023-12-20T00:08:16;6.80;99.90
12833;DHT22;6483;51.310;4.462;2023-12-20T00:10:43;6.90;99.90
12833;DHT22;6483;51.310;4.462;2023-12-20T00:13:09;6.80;99.90
12833;DHT22;6483;51.310;4.462;2023-12-20T00:15:35;6.70;99.90
12833;DHT22;6483;51.310;4.462;2023-12-20T00:18:00;6.70;99.90
12833;DHT22;6483;51.310;4.462;2023-12-20T00:20:28;6.70;99.90
12833;DHT22;6483;51.310;4.462;2023-12-20T00:22:57;7.20;99.90
12833;DHT22;6483;51.310;4.462;2023-12-20T00:25:23;6.50;99.90
12833;DHT22;6483;51.310;4.462;2023-12-20T00:27:49;6.40;99.90
12833;DHT22;6483;51.310;4.462;2023-12-20T00:30:15;6.30;99.90
12833;DHT22;6483;51.310;4.462;2023-12-20T00:32:41;6.80;99.90
12833;DHT22;6483;51.310;4.462;2023-12-20T00:35:15;6.30;99.90
12833;DHT22;6483;51.310;4.462;2023-12-20T00:37:42;6.20;99.90
12833;DHT22;6483;51.310;4.462;2023-12-20T00:40:08;6.50;99.90
12833;DHT22;6483;51.310;4.462;2023-12-20T00:42:34;6.20;99.90
12833;DHT22;6483;51.310;4.462;2023-12-20T00:45:00;7.00;99.90
12833;DHT22;6483;51.310;4.462;2023-12-20T00:47:25;6.10;99.90
12833;DHT22;6483;51.310;4.462;2023-12-20T00:49:51;6.40;99.90
12833;DHT22;6483;51.310;4.462;2023-12-20T00:52:17;6.00;99.90
12833;DHT22;6483;51.310;4.462;2023-12-20T00:54:43;6.00;99.90
12833;DHT22;6483;51.310;4.462;2023-12-20T00:57:09;7.10;99.90
12833;DHT22;6483;51.310;4.462;2023-12-20T00:59:35;6.00;99.90
12833;DHT22;6483;51.310;4.462;2023-12-20T01:02:01;7.00;99.90
12833;DHT22;6483;51.310;4.462;2023-12-20T01:04:27;6.00;99.90
12833;DHT22;6483;51.310;4.462;2023-12-20T01:06:52;6.00;99.90
12833;DHT22;6483;51.310;4.462;2023-12-20T01:09:19;6.00;99.90
12833;DHT22;6483;51.310;4.462;2023-12-20T01:11:44;5.90;99.90
12833;DHT22;6483;51.310;4.462;2023-12-20T01:14:12;6.00;99.90
12833;DHT22;6483;51.310;4.462;2023-12-20T01:16:37;5.90;99.90
12833;DHT22;6483;51.310;4.462;2023-12-20T01:19:03;5.90;99.90
12833;DHT22;6483;51.310;4.462;2023-12-20T01:21:30;5.90;99.90
12833;DHT22;6483;51.310;4.462;2023-12-20T01:26:22;5.90;99.90
12833;DHT22;6483;51.310;4.462;2023-12-20T01:28:47;6.00;99.90
12833;DHT22;6483;51.310;4.462;2023-12-20T01:31:13;6.00;99.90
12833;DHT22;6483;51.310;4.462;2023-12-20T01:33:39;6.00;99.90
12833;DHT22;6483;51.310;4.462;2023-12-20T01:36:04;6.10;99.90
12833;DHT22;6483;51.310;4.462;2023-12-20T01:38:30;6.10;99.90
12833;DHT22;6483;51.310;4.462;2023-12-20T01:40:56;6.20;99.90
12833;DHT22;6483;51.310;4.462;2023-12-20T01:45:47;6.30;99.90
12833;DHT22;6483;51.310;4.462;2023-12-20T01:48:15;6.40;99.90
12833;DHT22;6483;51.310;4.462;2023-12-20T01:50:41;6.50;99.90
12833;DHT22;6483;51.310;4.462;2023-12-20T01:53:09;6.60;99.90
12833;DHT22;6483;51.310;4.462;2023-12-20T01:55:39;6.60;99.90
12833;DHT22;6483;51.310;4.462;2023-12-20T01:58:05;6.60;99.90
12833;DHT22;6483;51.310;4.462;2023-12-20T02:00:31;6.60;99.90
12833;DHT22;6483;51.310;4.462;2023-12-20T02:03:00;7.10;99.90
12833;DHT22;6483;51.310;4.462;2023-12-20T02:05:26;6.80;99.90
12833;DHT22;6483;51.310;4.462;2023-12-20T02:07:53;6.90;99.90
12833;DHT22;6483;51.310;4.462;2023-12-20T02:10:19;6.90;99.90
12833;DHT22;6483;51.310;4.462;2023-12-20T02:12:44;6.90;99.90
12833;DHT22;6483;51.310;4.462;2023-12-20T02:15:10;7.00;99.90
12833;DHT22;6483;51.310;4.462;2023-12-20T02:17:36;7.00;99.90
12833;DHT22;6483;51.310;4.462;2023-12-20T02:20:04;7.00;99.90
12833;DHT22;6483;51.310;4.462;2023-12-20T02:22:31;7.00;99.90
12833;DHT22;6483;51.310;4.462;2023-12-20T02:24:57;7.00;99.90
12833;DHT22;6483;51.310;4.462;2023-12-20T02:27:23;6.90;99.90
12833;DHT22;6483;51.310;4.462;2023-12-20T02:29:51;6.70;99.90
12833;DHT22;6483;51.310;4.462;2023-12-20T02:32:17;6.70;99.90
12833;DHT22;6483;51.310;4.462;2023-12-20T02:39:35;6.60;99.90
12833;DHT22;6483;51.310;4.462;2023-12-20T02:42:01;6.50;99.90
12833;DHT22;6483;51.310;4.462;2023-12-20T02:44:27;6.50;99.90
12833;DHT22;6483;51.310;4.462;2023-12-20T02:46:52;6.50;99.90
12833;DHT22;6483;51.310;4.462;2023-12-20T02:49:18;6.50;99.90
12833;DHT22;6483;51.310;4.462;2023-12-20T02:51:44;6.50;99.90
12833;DHT22;6483;51.310;4.462;2023-12-20T02:54:09;6.50;99.90
12833;DHT22;6483;51.310;4.462;2023-12-20T02:56:35;6.50;99.90
12833;DHT22;6483;51.310;4.462;2023-12-20T02:59:01;6.40;99.90
12833;DHT22;6483;51.310;4.462;2023-12-20T03:01:28;6.40;99.90
12833;DHT22;6483;51.310;4.462;2023-12-20T03:03:54;6.50;99.90
12833;DHT22;6483;51.310;4.462;2023-12-20T03:06:20;6.50;99.90
12833;DHT22;6483;51.310;4.462;2023-12-20T03:08:46;6.00;99.90
12833;DHT22;6483;51.310;4.462;2023-12-20T03:11:12;6.50;99.90
12833;DHT22;6483;51.310;4.462;2023-12-20T03:13:37;6.70;99.90
12833;DHT22;6483;51.310;4.462;2023-12-20T03:16:12;6.70;99.90
12833;DHT22;6483;51.310;4.462;2023-12-20T03:18:39;6.80;99.90
12833;DHT22;6483;51.310;4.462;2023-12-20T03:21:05;6.80;99.90
12833;DHT22;6483;51.310;4.462;2023-12-20T03:23:31;6.80;99.90
12833;DHT22;6483;51.310;4.462;2023-12-20T03:25:58;6.80;99.90
12833;DHT22;6483;51.310;4.462;2023-12-20T03:28:24;6.70;99.90
12833;DHT22;6483;51.310;4.462;2023-12-20T03:30:49;6.70;99.90
12833;DHT22;6483;51.310;4.462;2023-12-20T03:33:15;6.70;99.90
12833;DHT22;6483;51.310;4.462;2023-12-20T03:35:41;6.70;99.90
12833;DHT22;6483;51.310;4.462;2023-12-20T03:38:07;6.70;99.90
12833;DHT22;6483;51.310;4.462;2023-12-20T03:40:32;6.60;99.90
12833;DHT22;6483;51.310;4.462;2023-12-20T03:42:58;6.50;99.90
12833;DHT22;6483;51.310;4.462;2023-12-20T03:45:24;6.50;99.90
12833;DHT22;6483;51.310;4.462;2023-12-20T03:47:50;6.50;99.90
12833;DHT22;6483;51.310;4.462;2023-12-20T03:50:21;6.40;99.90
12833;DHT22;6483;51.310;4.462;2023-12-20T03:52:47;6.40;99.90
12833;DHT22;6483;51.310;4.462;2023-12-20T03:55:12;6.40;99.90
12833;DHT22;6483;51.310;4.462;2023-12-20T03:57:38;6.40;99.90
12833;DHT22;6483;51.310;4.462;2023-12-20T04:00:04;6.40;99.90
12833;DHT22;6483;51.310;4.462;2023-12-20T04:02:31;6.40;99.90
12833;DHT22;6483;51.310;4.462;2023-12-20T04:04:56;6.40;99.90
12833;DHT22;6483;51.310;4.462;2023-12-20T04:07:22;6.40;99.90
12833;DHT22;6483;51.310;4.462;2023-12-20T04:12:14;6.40;99.90
12833;DHT22;6483;51.310;4.462;2023-12-20T04:14:39;6.40;99.90
12833;DHT22;6483;51.310;4.462;2023-12-20T04:17:05;6.50;99.90
12833;DHT22;6483;51.310;4.462;2023-12-20T04:19:30;6.50;99.90
12833;DHT22;6483;51.310;4.462;2023-12-20T04:21:57;6.50;99.90
12833;DHT22;6483;51.310;4.462;2023-12-20T04:24:22;6.60;99.90
12833;DHT22;6483;51.310;4.462;2023-12-20T04:26:48;7.90;99.90
12833;DHT22;6483;51.310;4.462;2023-12-20T04:29:14;6.50;99.90
12833;DHT22;6483;51.310;4.462;2023-12-20T04:31:39;6.50;99.90
12833;DHT22;6483;51.310;4.462;2023-12-20T04:34:05;6.50;99.90
12833;DHT22;6483;51.310;4.462;2023-12-20T04:36:30;6.50;99.90
12833;DHT22;6483;51.310;4.462;2023-12-20T04:38:56;6.50;99.90
12833;DHT22;6483;51.310;4.462;2023-12-20T04:41:22;8.90;99.90
12833;DHT22;6483;51.310;4.462;2023-12-20T04:43:47;6.50;99.90
12833;DHT22;6483;51.310;4.462;2023-12-20T04:46:13;6.50;99.90
12833;DHT22;6483;51.310;4.462;2023-12-20T04:48:40;6.50;99.90
12833;DHT22;6483;51.310;4.462;2023-12-20T04:51:05;6.50;99.90
12833;DHT22;6483;51.310;4.462;2023-12-20T04:53:31;6.50;99.90
12833;DHT22;6483;51.310;4.462;2023-12-20T04:55:57;6.50;99.90
12833;DHT22;6483;51.310;4.462;2023-12-20T04:58:22;6.50;99.90
12833;DHT22;6483;51.310;4.462;2023-12-20T05:00:48;6.50;99.90
12833;DHT22;6483;51.310;4.462;2023-12-20T05:03:14;6.50;99.90
12833;DHT22;6483;51.310;4.462;2023-12-20T05:05:39;6.60;99.90
12833;DHT22;6483;51.310;4.462;2023-12-20T05:08:05;6.50;99.90
12833;DHT22;6483;51.310;4.462;2023-12-20T05:10:31;6.60;99.90
12833;DHT22;6483;51.310;4.462;2023-12-20T05:12:56;6.60;99.90
12833;DHT22;6483;51.310;4.462;2023-12-20T05:15:22;6.60;99.90
12833;DHT22;6483;51.310;4.462;2023-12-20T05:17:48;6.60;99.90
12833;DHT22;6483;51.310;4.462;2023-12-20T05:20:13;6.60;99.90
12833;DHT22;6483;51.310;4.462;2023-12-20T05:22:41;6.60;99.90
12833;DHT22;6483;51.310;4.462;2023-12-20T05:25:07;6.60;99.90
12833;DHT22;6483;51.310;4.462;2023-12-20T05:27:33;6.60;99.90
12833;DHT22;6483;51.310;4.462;2023-12-20T05:29:59;6.50;99.90
12833;DHT22;6483;51.310;4.462;2023-12-20T05:32:24;6.50;99.90
12833;DHT22;6483;51.310;4.462;2023-12-20T05:37:16;6.60;99.90
12833;DHT22;6483;51.310;4.462;2023-12-20T05:39:42;6.60;99.90
12833;DHT22;6483;51.310;4.462;2023-12-20T05:42:07;6.60;99.90
12833;DHT22;6483;51.310;4.462;2023-12-20T05:44:33;6.60;99.90
12833;DHT22;6483;51.310;4.462;2023-12-20T05:46:59;6.70;99.90
12833;DHT22;6483;51.310;4.462;2023-12-20T05:49:24;6.70;99.90
12833;DHT22;6483;51.310;4.462;2023-12-20T05:51:50;6.70;99.90
12833;DHT22;6483;51.310;4.462;2023-12-20T05:54:16;6.70;99.90
12833;DHT22;6483;51.310;4.462;2023-12-20T05:56:42;6.70;99.90
12833;DHT22;6483;51.310;4.462;2023-12-20T05:59:08;6.70;99.90
12833;DHT22;6483;51.310;4.462;2023-12-20T06:01:33;6.70;99.90
12833;DHT22;6483;51.310;4.462;2023-12-20T06:06:25;6.80;99.90
12833;DHT22;6483;51.310;4.462;2023-12-20T06:08:50;6.80;99.90
12833;DHT22;6483;51.310;4.462;2023-12-20T06:11:16;6.80;99.90
12833;DHT22;6483;51.310;4.462;2023-12-20T06:13:42;6.80;99.90
12833;DHT22;6483;51.310;4.462;2023-12-20T06:16:07;6.90;99.90
12833;DHT22;6483;51.310;4.462;2023-12-20T06:18:33;6.90;99.90
12833;DHT22;6483;51.310;4.462;2023-12-20T06:20:59;6.90;99.90
12833;DHT22;6483;51.310;4.462;2023-12-20T06:23:24;6.80;99.90
12833;DHT22;6483;51.310;4.462;2023-12-20T06:25:50;6.80;99.90
12833;DHT22;6483;51.310;4.462;2023-12-20T06:28:16;6.80;99.90
12833;DHT22;6483;51.310;4.462;2023-12-20T06:30:41;6.90;99.90
12833;DHT22;6483;51.310;4.462;2023-12-20T06:33:07;7.00;99.90
12833;DHT22;6483;51.310;4.462;2023-12-20T06:35:32;7.10;99.90
12833;DHT22;6483;51.310;4.462;2023-12-20T06:37:58;7.20;99.90
12833;DHT22;6483;51.310;4.462;2023-12-20T06:40:24;7.20;99.90
12833;DHT22;6483;51.310;4.462;2023-12-20T06:42:49;7.20;99.90
12833;DHT22;6483;51.310;4.462;2023-12-20T06:45:15;7.10;99.90
12833;DHT22;6483;51.310;4.462;2023-12-20T06:47:41;7.10;99.90
12833;DHT22;6483;51.310;4.462;2023-12-20T06:50:06;7.10;99.90
12833;DHT22;6483;51.310;4.462;2023-12-20T06:52:34;4.70;99.90
12833;DHT22;6483;51.310;4.462;2023-12-20T06:57:26;7.20;99.90
12833;DHT22;6483;51.310;4.462;2023-12-20T06:59:52;7.20;99.90
12833;DHT22;6483;51.310;4.462;2023-12-20T07:02:18;7.10;99.90
12833;DHT22;6483;51.310;4.462;2023-12-20T07:07:10;7.10;99.90
12833;DHT22;6483;51.310;4.462;2023-12-20T07:09:36;7.10;99.90
12833;DHT22;6483;51.310;4.462;2023-12-20T07:12:02;7.10;99.90
12833;DHT22;6483;51.310;4.462;2023-12-20T07:14:27;7.10;99.90
12833;DHT22;6483;51.310;4.462;2023-12-20T07:16:54;7.10;99.90
12833;DHT22;6483;51.310;4.462;2023-12-20T07:19:20;7.10;99.90
12833;DHT22;6483;51.310;4.462;2023-12-20T07:21:45;7.10;99.90
12833;DHT22;6483;51.310;4.462;2023-12-20T07:24:11;7.20;99.90
12833;DHT22;6483;51.310;4.462;2023-12-20T07:26:37;7.20;99.90
12833;DHT22;6483;51.310;4.462;2023-12-20T07:29:04;7.30;99.90
12833;DHT22;6483;51.310;4.462;2023-12-20T07:33:56;7.30;99.90
12833;DHT22;6483;51.310;4.462;2023-12-20T07:36:22;7.30;99.90
12833;DHT22;6483;51.310;4.462;2023-12-20T07:38:47;7.30;99.90
12833;DHT22;6483;51.310;4.462;2023-12-20T07:41:13;7.30;99.90
12833;DHT22;6483;51.310;4.462;2023-12-20T07:46:10;7.30;99.90
12833;DHT22;6483;51.310;4.462;2023-12-20T07:48:35;7.40;99.90
12833;DHT22;6483;51.310;4.462;2023-12-20T07:51:02;7.40;99.90
12833;DHT22;6483;51.310;4.462;2023-12-20T07:53:28;7.40;99.90
12833;DHT22;6483;51.310;4.462;2023-12-20T07:55:53;7.40;99.90
12833;DHT22;6483;51.310;4.462;2023-12-20T07:58:19;7.50;99.90
12833;DHT22;6483;51.310;4.462;2023-12-20T08:00:45;7.50;99.90
12833;DHT22;6483;51.310;4.462;2023-12-20T08:03:11;7.40;99.90
12833;DHT22;6483;51.310;4.462;2023-12-20T08:05:38;7.40;99.90
12833;DHT22;6483;51.310;4.462;2023-12-20T08:08:06;7.40;99.90
12833;DHT22;6483;51.310;4.462;2023-12-20T08:10:32;7.40;99.90
12833;DHT22;6483;51.310;4.462;2023-12-20T08:12:57;7.40;99.90
12833;DHT22;6483;51.310;4.462;2023-12-20T08:15:23;7.30;99.90
12833;DHT22;6483;51.310;4.462;2023-12-20T08:25:12;7.30;99.90
12833;DHT22;6483;51.310;4.462;2023-12-20T08:27:40;7.20;99.90
12833;DHT22;6483;51.310;4.462;2023-12-20T08:30:08;7.30;99.90
12833;DHT22;6483;51.310;4.462;2023-12-20T08:32:34;7.30;99.90
12833;DHT22;6483;51.310;4.462;2023-12-20T08:35:00;7.30;99.90
12833;DHT22;6483;51.310;4.462;2023-12-20T08:37:26;7.30;99.90
12833;DHT22;6483;51.310;4.462;2023-12-20T08:39:51;7.20;99.90
12833;DHT22;6483;51.310;4.462;2023-12-20T08:42:17;7.20;99.90
12833;DHT22;6483;51.310;4.462;2023-12-20T08:44:42;7.20;99.90
12833;DHT22;6483;51.310;4.462;2023-12-20T08:47:08;7.20;99.90
12833;DHT22;6483;51.310;4.462;2023-12-20T08:49:38;7.10;99.90
12833;DHT22;6483;51.310;4.462;2023-12-20T08:52:04;7.20;99.90
12833;DHT22;6483;51.310;4.462;2023-12-20T08:56:57;7.30;99.90
12833;DHT22;6483;51.310;4.462;2023-12-20T08:59:22;7.30;99.90
12833;DHT22;6483;51.310;4.462;2023-12-20T09:01:48;7.50;99.90
12833;DHT22;6483;51.310;4.462;2023-12-20T09:04:19;7.50;99.90
12833;DHT22;6483;51.310;4.462;2023-12-20T09:06:45;7.70;99.90
12833;DHT22;6483;51.310;4.462;2023-12-20T09:09:11;7.60;99.90
12833;DHT22;6483;51.310;4.462;2023-12-20T09:14:05;7.60;99.90
12833;DHT22;6483;51.310;4.462;2023-12-20T09:16:30;7.80;99.90
12833;DHT22;6483;51.310;4.462;2023-12-20T09:18:57;7.80;99.90
12833;DHT22;6483;51.310;4.462;2023-12-20T09:21:22;7.90;99.90
12833;DHT22;6483;51.310;4.462;2023-12-20T09:23:48;7.90;99.90
12833;DHT22;6483;51.310;4.462;2023-12-20T09:26:14;7.90;99.90
12833;DHT22;6483;51.310;4.462;2023-12-20T09:28:39;7.90;99.90
12833;DHT22;6483;51.310;4.462;2023-12-20T09:33:32;8.20;99.90
12833;DHT22;6483;51.310;4.462;2023-12-20T09:35:58;8.40;99.90
12833;DHT22;6483;51.310;4.462;2023-12-20T09:38:24;8.60;99.90
12833;DHT22;6483;51.310;4.462;2023-12-20T09:40:49;8.50;99.90
12833;DHT22;6483;51.310;4.462;2023-12-20T09:43:19;8.40;99.90
12833;DHT22;6483;51.310;4.462;2023-12-20T09:45:48;8.30;99.90
12833;DHT22;6483;51.310;4.462;2023-12-20T09:48:17;8.20;99.90
12833;DHT22;6483;51.310;4.462;2023-12-20T09:50:43;8.20;99.90
12833;DHT22;6483;51.310;4.462;2023-12-20T09:53:14;8.20;99.90
12833;DHT22;6483;51.310;4.462;2023-12-20T09:55:41;8.20;99.90
12833;DHT22;6483;51.310;4.462;2023-12-20T09:58:07;8.10;99.90
12833;DHT22;6483;51.310;4.462;2023-12-20T10:00:35;8.10;99.90
12833;DHT22;6483;51.310;4.462;2023-12-20T10:03:01;8.10;99.90
12833;DHT22;6483;51.310;4.462;2023-12-20T10:05:29;8.20;99.90
12833;DHT22;6483;51.310;4.462;2023-12-20T10:07:55;8.10;99.90
12833;DHT22;6483;51.310;4.462;2023-12-20T10:13:05;8.10;99.90
12833;DHT22;6483;51.310;4.462;2023-12-20T10:15:33;8.20;99.90
12833;DHT22;6483;51.310;4.462;2023-12-20T10:17:58;8.20;99.90
12833;DHT22;6483;51.310;4.462;2023-12-20T10:20:25;8.20;99.90
12833;DHT22;6483;51.310;4.462;2023-12-20T10:22:51;8.10;99.90
12833;DHT22;6483;51.310;4.462;2023-12-20T10:25:20;8.20;99.90
12833;DHT22;6483;51.310;4.462;2023-12-20T10:27:46;8.20;99.90
12833;DHT22;6483;51.310;4.462;2023-12-20T10:30:13;8.30;99.90
12833;DHT22;6483;51.310;4.462;2023-12-20T10:35:06;8.30;99.90
12833;DHT22;6483;51.310;4.462;2023-12-20T10:37:36;8.30;99.90
12833;DHT22;6483;51.310;4.462;2023-12-20T10:40:04;8.40;99.90
12833;DHT22;6483;51.310;4.462;2023-12-20T10:42:31;8.40;99.90
12833;DHT22;6483;51.310;4.462;2023-12-20T10:44:59;8.40;99.90
12833;DHT22;6483;51.310;4.462;2023-12-20T10:47:26;8.40;99.90
12833;DHT22;6483;51.310;4.462;2023-12-20T10:49:54;8.40;99.90
12833;DHT22;6483;51.310;4.462;2023-12-20T10:52:23;8.40;99.90
12833;DHT22;6483;51.310;4.462;2023-12-20T10:54:50;8.50;99.90
12833;DHT22;6483;51.310;4.462;2023-12-20T10:57:18;8.50;99.90
12833;DHT22;6483;51.310;4.462;2023-12-20T10:59:45;8.50;99.90
12833;DHT22;6483;51.310;4.462;2023-12-20T11:02:14;8.50;99.90
12833;DHT22;6483;51.310;4.462;2023-12-20T11:04:44;8.60;99.90
12833;DHT22;6483;51.310;4.462;2023-12-20T11:07:35;8.60;99.90
12833;DHT22;6483;51.310;4.462;2023-12-20T11:10:47;8.60;99.90
12833;DHT22;6483;51.310;4.462;2023-12-20T11:13:02;8.60;99.90
12833;DHT22;6483;51.310;4.462;2023-12-20T11:15:30;8.50;99.90
12833;DHT22;6483;51.310;4.462;2023-12-20T11:17:57;8.50;99.90
12833;DHT22;6483;51.310;4.462;2023-12-20T11:20:38;8.60;99.90
12833;DHT22;6483;51.310;4.462;2023-12-20T11:25:54;8.60;99.90
12833;DHT22;6483;51.310;4.462;2023-12-20T11:28:23;8.50;99.90
12833;DHT22;6483;51.310;4.462;2023-12-20T11:31:08;8.50;99.90
12833;DHT22;6483;51.310;4.462;2023-12-20T11:33:37;8.50;99.90
12833;DHT22;6483;51.310;4.462;2023-12-20T11:36:03;8.40;99.90
12833;DHT22;6483;51.310;4.462;2023-12-20T11:38:38;8.40;99.90
12833;DHT22;6483;51.310;4.462;2023-12-20T11:41:06;8.40;99.90
12833;DHT22;6483;51.310;4.462;2023-12-20T11:43:38;8.50;99.90
12833;DHT22;6483;51.310;4.462;2023-12-20T11:46:05;8.50;99.90
12833;DHT22;6483;51.310;4.462;2023-12-20T11:48:34;8.50;99.90
12833;DHT22;6483;51.310;4.462;2023-12-20T11:51:00;8.50;99.90
12833;DHT22;6483;51.310;4.462;2023-12-20T11:53:25;8.50;99.90
12833;DHT22;6483;51.310;4.462;2023-12-20T11:55:51;8.50;99.90
12833;DHT22;6483;51.310;4.462;2023-12-20T11:58:17;8.50;99.90
12833;DHT22;6483;51.310;4.462;2023-12-20T12:00:43;8.60;99.90
12833;DHT22;6483;51.310;4.462;2023-12-20T12:03:09;8.60;99.90
12833;DHT22;6483;51.310;4.462;2023-12-20T12:05:35;8.60;99.90
12833;DHT22;6483;51.310;4.462;2023-12-20T12:08:02;8.60;99.90
12833;DHT22;6483;51.310;4.462;2023-12-20T12:10:29;8.70;99.90
12833;DHT22;6483;51.310;4.462;2023-12-20T12:12:54;8.70;99.90
12833;DHT22;6483;51.310;4.462;2023-12-20T12:15:21;8.70;99.90
12833;DHT22;6483;51.310;4.462;2023-12-20T12:17:56;8.70;99.90
12833;DHT22;6483;51.310;4.462;2023-12-20T12:20:22;8.70;99.90
12833;DHT22;6483;51.310;4.462;2023-12-20T12:23:02;8.70;99.90
12833;DHT22;6483;51.310;4.462;2023-12-20T12:25:33;8.70;99.90
12833;DHT22;6483;51.310;4.462;2023-12-20T12:28:00;8.70;99.90
12833;DHT22;6483;51.310;4.462;2023-12-20T12:30:26;8.70;99.90
12833;DHT22;6483;51.310;4.462;2023-12-20T12:32:53;8.70;99.90
12833;DHT22;6483;51.310;4.462;2023-12-20T12:35:20;8.70;99.90
12833;DHT22;6483;51.310;4.462;2023-12-20T12:37:45;8.70;99.90
12833;DHT22;6483;51.310;4.462;2023-12-20T12:40:13;8.80;99.90
12833;DHT22;6483;51.310;4.462;2023-12-20T12:42:39;8.80;99.90
12833;DHT22;6483;51.310;4.462;2023-12-20T12:45:06;8.80;99.90
12833;DHT22;6483;51.310;4.462;2023-12-20T12:47:32;8.90;99.90
12833;DHT22;6483;51.310;4.462;2023-12-20T12:49:58;8.90;99.90
12833;DHT22;6483;51.310;4.462;2023-12-20T12:54:50;9.00;99.90
12833;DHT22;6483;51.310;4.462;2023-12-20T12:57:16;9.00;99.90
12833;DHT22;6483;51.310;4.462;2023-12-20T12:59:43;9.10;99.90
12833;DHT22;6483;51.310;4.462;2023-12-20T13:02:11;9.30;99.90
12833;DHT22;6483;51.310;4.462;2023-12-20T13:04:37;9.30;99.90
12833;DHT22;6483;51.310;4.462;2023-12-20T13:07:02;9.40;99.90
12833;DHT22;6483;51.310;4.462;2023-12-20T13:09:28;9.40;99.90
12833;DHT22;6483;51.310;4.462;2023-12-20T13:11:54;9.40;99.90
12833;DHT22;6483;51.310;4.462;2023-12-20T13:14:20;9.50;99.90
12833;DHT22;6483;51.310;4.462;2023-12-20T13:16:45;9.50;99.90
12833;DHT22;6483;51.310;4.462;2023-12-20T13:19:11;9.40;99.90
12833;DHT22;6483;51.310;4.462;2023-12-20T13:21:37;9.40;99.90
12833;DHT22;6483;51.310;4.462;2023-12-20T13:24:03;9.40;99.90
12833;DHT22;6483;51.310;4.462;2023-12-20T13:26:28;9.40;99.90
12833;DHT22;6483;51.310;4.462;2023-12-20T13:28:54;9.40;99.90
12833;DHT22;6483;51.310;4.462;2023-12-20T13:31:20;9.40;99.90
12833;DHT22;6483;51.310;4.462;2023-12-20T13:33:46;9.40;99.90
12833;DHT22;6483;51.310;4.462;2023-12-20T13:36:12;9.50;99.90
12833;DHT22;6483;51.310;4.462;2023-12-20T13:38:38;9.50;99.90
12833;DHT22;6483;51.310;4.462;2023-12-20T13:41:04;9.50;99.90
12833;DHT22;6483;51.310;4.462;2023-12-20T13:43:33;9.50;99.90
12833;DHT22;6483;51.310;4.462;2023-12-20T13:46:00;9.40;99.90
12833;DHT22;6483;51.310;4.462;2023-12-20T13:48:25;9.40;99.90
12833;DHT22;6483;51.310;4.462;2023-12-20T13:50:51;9.40;99.90
12833;DHT22;6483;51.310;4.462;2023-12-20T13:53:16;9.40;99.90
12833;DHT22;6483;51.310;4.462;2023-12-20T13:55:42;9.50;99.90
12833;DHT22;6483;51.310;4.462;2023-12-20T13:58:08;9.40;99.90
12833;DHT22;6483;51.310;4.462;2023-12-20T14:00:35;9.40;99.90
12833;DHT22;6483;51.310;4.462;2023-12-20T14:03:03;9.40;99.90
12833;DHT22;6483;51.310;4.462;2023-12-20T14:05:29;9.50;99.90
12833;DHT22;6483;51.310;4.462;2023-12-20T14:07:55;9.50;99.90
12833;DHT22;6483;51.310;4.462;2023-12-20T14:10:23;9.40;99.90
12833;DHT22;6483;51.310;4.462;2023-12-20T14:12:50;9.50;99.90
12833;DHT22;6483;51.310;4.462;2023-12-20T14:15:16;9.60;99.90
12833;DHT22;6483;51.310;4.462;2023-12-20T14:17:42;9.60;99.90
12833;DHT22;6483;51.310;4.462;2023-12-20T14:20:08;9.60;99.90
12833;DHT22;6483;51.310;4.462;2023-12-20T14:22:34;9.50;99.90
12833;DHT22;6483;51.310;4.462;2023-12-20T14:27:27;9.50;99.90
12833;DHT22;6483;51.310;4.462;2023-12-20T14:29:55;9.50;99.90
12833;DHT22;6483;51.310;4.462;2023-12-20T14:32:21;9.50;99.90
12833;DHT22;6483;51.310;4.462;2023-12-20T14:34:47;9.50;99.90
12833;DHT22;6483;51.310;4.462;2023-12-20T14:37:13;9.50;99.90
12833;DHT22;6483;51.310;4.462;2023-12-20T14:39:38;9.50;99.90
12833;DHT22;6483;51.310;4.462;2023-12-20T14:42:07;9.50;99.90
12833;DHT22;6483;51.310;4.462;2023-12-20T14:44:37;9.50;99.90
12833;DHT22;6483;51.310;4.462;2023-12-20T14:47:04;12.80;99.90
12833;DHT22;6483;51.310;4.462;2023-12-20T14:49:30;9.60;99.90
12833;DHT22;6483;51.310;4.462;2023-12-20T14:51:55;9.60;99.90
12833;DHT22;6483;51.310;4.462;2023-12-20T14:54:21;9.60;99.90
12833;DHT22;6483;51.310;4.462;2023-12-20T14:56:47;9.60;99.90
12833;DHT22;6483;51.310;4.462;2023-12-20T14:59:13;9.60;99.90
12833;DHT22;6483;51.310;4.462;2023-12-20T15:01:39;9.60;99.90
12833;DHT22;6483;51.310;4.462;2023-12-20T15:04:08;9.60;99.90
12833;DHT22;6483;51.310;4.462;2023-12-20T15:06:34;9.60;99.90
12833;DHT22;6483;51.310;4.462;2023-12-20T15:09:00;9.60;99.90
12833;DHT22;6483;51.310;4.462;2023-12-20T15:11:26;9.60;99.90
12833;DHT22;6483;51.310;4.462;2023-12-20T15:13:52;9.60;99.90
12833;DHT22;6483;51.310;4.462;2023-12-20T15:16:22;9.60;99.90
12833;DHT22;6483;51.310;4.462;2023-12-20T15:18:48;9.60;99.90
12833;DHT22;6483;51.310;4.462;2023-12-20T15:21:15;9.60;99.90
12833;DHT22;6483;51.310;4.462;2023-12-20T15:23:41;9.60;99.90
12833;DHT22;6483;51.310;4.462;2023-12-20T15:26:18;6.70;99.90
12833;DHT22;6483;51.310;4.462;2023-12-20T15:28:43;9.60;99.90
12833;DHT22;6483;51.310;4.462;2023-12-20T15:31:09;9.70;99.90
12833;DHT22;6483;51.310;4.462;2023-12-20T15:33:35;9.60;99.90
12833;DHT22;6483;51.310;4.462;2023-12-20T15:36:00;9.60;99.90
12833;DHT22;6483;51.310;4.462;2023-12-20T15:38:26;9.60;99.90
12833;DHT22;6483;51.310;4.462;2023-12-20T15:40:51;9.60;99.90
12833;DHT22;6483;51.310;4.462;2023-12-20T15:43:17;9.50;99.90
12833;DHT22;6483;51.310;4.462;2023-12-20T15:45:43;9.50;99.90
12833;DHT22;6483;51.310;4.462;2023-12-20T15:48:08;9.40;99.90
12833;DHT22;6483;51.310;4.462;2023-12-20T15:50:39;9.40;99.90
12833;DHT22;6483;51.310;4.462;2023-12-20T15:53:05;9.40;99.90
12833;DHT22;6483;51.310;4.462;2023-12-20T15:55:31;9.30;99.90
12833;DHT22;6483;51.310;4.462;2023-12-20T15:57:56;9.30;99.90
12833;DHT22;6483;51.310;4.462;2023-12-20T16:02:48;9.20;99.90
12833;DHT22;6483;51.310;4.462;2023-12-20T16:05:14;9.20;99.90
12833;DHT22;6483;51.310;4.462;2023-12-20T16:07:39;9.20;99.90
12833;DHT22;6483;51.310;4.462;2023-12-20T16:10:05;9.20;99.90
12833;DHT22;6483;51.310;4.462;2023-12-20T16:12:31;9.20;99.90
12833;DHT22;6483;51.310;4.462;2023-12-20T16:14:57;9.10;99.90
12833;DHT22;6483;51.310;4.462;2023-12-20T16:17:24;9.10;99.90
12833;DHT22;6483;51.310;4.462;2023-12-20T16:19:49;9.10;99.90
12833;DHT22;6483;51.310;4.462;2023-12-20T16:22:16;9.10;99.90
12833;DHT22;6483;51.310;4.462;2023-12-20T16:24:42;9.10;99.90
12833;DHT22;6483;51.310;4.462;2023-12-20T16:27:07;9.10;99.90
12833;DHT22;6483;51.310;4.462;2023-12-20T16:29:33;9.10;99.90
12833;DHT22;6483;51.310;4.462;2023-12-20T16:31:59;9.00;99.90
12833;DHT22;6483;51.310;4.462;2023-12-20T16:34:24;9.00;99.90
12833;DHT22;6483;51.310;4.462;2023-12-20T16:36:51;9.00;99.90
12833;DHT22;6483;51.310;4.462;2023-12-20T16:39:17;9.00;99.90
12833;DHT22;6483;51.310;4.462;2023-12-20T16:41:43;9.00;99.90
12833;DHT22;6483;51.310;4.462;2023-12-20T16:44:08;8.90;99.90
12833;DHT22;6483;51.310;4.462;2023-12-20T16:46:34;8.90;99.90
12833;DHT22;6483;51.310;4.462;2023-12-20T16:49:00;9.00;99.90
12833;DHT22;6483;51.310;4.462;2023-12-20T16:51:25;8.90;99.90
12833;DHT22;6483;51.310;4.462;2023-12-20T16:53:54;9.00;99.90